createdAt,value
2019-05-11T00:01:38.760Z,8.77
2019-05-11T00:04:49.785Z,8.76
2019-05-11T00:08:00.302Z,8.64
2019-05-11T00:11:10.153Z,8.60
2019-05-11T00:14:28.639Z,8.39
2019-05-11T00:17:43.360Z,8.30
2019-05-11T00:20:54.139Z,8.22
2019-05-11T00:24:07.162Z,8.06
2019-05-11T00:27:19.488Z,7.96
2019-05-11T00:30:30.538Z,8.11
2019-05-11T00:33:44.281Z,8.08
2019-05-11T00:36:54.970Z,7.98
2019-05-11T00:40:14.260Z,7.94
2019-05-11T00:43:22.813Z,7.86
2019-05-11T00:46:33.343Z,7.97
2019-05-11T00:49:44.030Z,7.92
2019-05-11T00:52:54.685Z,7.92
2019-05-11T00:56:05.314Z,7.93
2019-05-11T00:59:21.857Z,7.84
2019-05-11T01:02:29.305Z,7.96
2019-05-11T01:05:39.982Z,7.86
2019-05-11T01:08:51.102Z,7.82
2019-05-11T01:12:01.010Z,7.78
2019-05-11T01:15:12.941Z,7.75
2019-05-11T01:18:27.072Z,7.69
2019-05-11T01:21:38.109Z,7.67
2019-05-11T01:24:49.105Z,7.68
2019-05-11T01:28:00.190Z,7.73
2019-05-11T01:31:11.169Z,7.72
2019-05-11T01:34:22.432Z,7.64
2019-05-11T01:37:32.519Z,7.63
2019-05-11T01:40:57.753Z,7.62
2019-05-11T01:44:00.482Z,7.73
2019-05-11T01:47:17.284Z,7.68
2019-05-11T01:50:28.045Z,7.72
2019-05-11T01:53:37.842Z,7.74
2019-05-11T01:56:50.859Z,7.89
2019-05-11T02:03:20.286Z,7.99
2019-05-11T02:06:30.244Z,7.98
2019-05-11T02:09:41.073Z,7.89
2019-05-11T02:12:51.577Z,7.66
2019-05-11T02:16:02.388Z,7.59
2019-05-11T02:19:12.837Z,7.57
2019-05-11T02:22:24.402Z,7.61
2019-05-11T02:25:37.476Z,7.63
2019-05-11T02:28:48.175Z,7.58
2019-05-11T02:32:00.610Z,7.68
2019-05-11T02:35:12.460Z,7.71
2019-05-11T02:38:28.218Z,7.69
2019-05-11T02:41:38.604Z,7.62
2019-05-11T02:44:49.588Z,7.38
2019-05-11T02:48:00.200Z,7.44
2019-05-11T02:51:13.126Z,7.19
2019-05-11T02:54:24.428Z,7.26
2019-05-11T02:57:38.729Z,7.26
2019-05-11T03:00:52.608Z,7.24
2019-05-11T03:07:24.404Z,7.20
2019-05-11T03:10:38.422Z,7.23
2019-05-11T03:13:48.433Z,7.16
2019-05-11T03:17:15.941Z,7.24
2019-05-11T03:20:28.119Z,7.44
2019-05-11T03:23:38.483Z,7.37
2019-05-11T03:26:51.733Z,7.32
2019-05-11T03:30:02.541Z,7.36
2019-05-11T03:33:13.560Z,7.37
2019-05-11T03:36:42.180Z,7.44
2019-05-11T03:39:52.263Z,7.52
2019-05-11T03:43:02.473Z,7.49
2019-05-11T03:46:13.356Z,7.56
2019-05-11T03:49:23.237Z,7.52
2019-05-11T03:52:34.038Z,7.59
2019-05-11T03:55:43.998Z,7.52
2019-05-11T03:58:55.217Z,7.63
2019-05-11T04:02:05.280Z,7.59
2019-05-11T04:05:15.508Z,7.54
2019-05-11T04:08:25.422Z,7.60
2019-05-11T04:11:36.315Z,7.77
2019-05-11T04:14:47.059Z,7.86
2019-05-11T04:17:57.523Z,8.01
2019-05-11T04:21:09.315Z,7.89
2019-05-11T04:24:19.893Z,7.79
2019-05-11T04:27:30.783Z,7.79
2019-05-11T04:30:41.688Z,7.65
2019-05-11T04:33:52.555Z,7.53
2019-05-11T04:37:03.686Z,7.67
2019-05-11T04:40:14.636Z,7.75
2019-05-11T04:43:27.337Z,7.97
2019-05-11T04:46:38.095Z,7.90
2019-05-11T04:49:48.631Z,8.20
2019-05-11T04:52:59.132Z,8.34
2019-05-11T04:56:09.100Z,8.36
2019-05-11T04:59:19.371Z,8.36
2019-05-11T05:02:30.010Z,8.32
2019-05-11T05:05:40.321Z,8.28
2019-05-11T05:08:50.699Z,8.29
2019-05-11T05:12:00.779Z,8.37
2019-05-11T05:15:13.965Z,8.45
2019-05-11T05:18:23.787Z,8.58
2019-05-11T05:21:34.361Z,8.74
2019-05-11T05:24:44.136Z,8.93
2019-05-11T05:27:54.357Z,9.01
2019-05-11T05:31:04.757Z,9.25
2019-05-11T05:34:14.311Z,9.25
2019-05-11T05:37:25.378Z,9.37
2019-05-11T05:40:35.476Z,9.40
2019-05-11T05:43:49.085Z,9.60
2019-05-11T05:46:59.464Z,9.73
2019-05-11T05:50:13.387Z,9.70
2019-05-11T05:53:24.632Z,9.71
2019-05-11T05:56:34.762Z,9.67
2019-05-11T05:59:45.505Z,9.68
2019-05-11T06:02:55.333Z,9.78
2019-05-11T06:06:07.606Z,9.77
2019-05-11T06:09:18.618Z,9.78
2019-05-11T06:12:29.477Z,9.97
2019-05-11T06:15:40.195Z,9.93
2019-05-11T06:18:51.195Z,9.86
2019-05-11T06:22:01.459Z,9.91
2019-05-11T06:25:12.385Z,9.85
2019-05-11T06:28:22.135Z,9.86
2019-05-11T06:31:33.759Z,9.97
2019-05-11T06:34:44.307Z,10.22
2019-05-11T06:37:55.241Z,9.99
2019-05-11T06:41:07.543Z,9.85
2019-05-11T06:44:18.368Z,9.94
2019-05-11T06:47:28.654Z,9.99
2019-05-11T06:50:39.332Z,10.15
2019-05-11T06:53:50.189Z,10.23
2019-05-11T06:57:01.279Z,10.34
2019-05-11T07:00:12.607Z,10.51
2019-05-11T07:03:22.806Z,10.54
2019-05-11T07:06:33.827Z,10.53
2019-05-11T07:09:44.539Z,10.72
2019-05-11T07:12:54.841Z,10.95
2019-05-11T07:16:07.843Z,11.06
2019-05-11T07:19:18.613Z,11.21
2019-05-11T07:22:28.783Z,11.42
2019-05-11T07:25:39.682Z,11.50
2019-05-11T07:28:50.604Z,11.39
2019-05-11T07:32:08.185Z,11.23
2019-05-11T07:35:12.371Z,11.04
2019-05-11T07:38:27.825Z,11.13
2019-05-11T07:41:38.884Z,11.05
2019-05-11T07:44:50.104Z,11.22
2019-05-11T07:48:01.322Z,11.20
2019-05-11T07:51:12.322Z,11.32
2019-05-11T07:54:23.109Z,11.44
2019-05-11T07:57:39.048Z,11.60
2019-05-11T08:00:50.825Z,12.13
2019-05-11T08:04:01.181Z,12.27
2019-05-11T08:07:12.017Z,12.27
2019-05-11T08:10:22.652Z,12.55
2019-05-11T08:13:33.489Z,12.76
2019-05-11T08:16:44.211Z,12.96
2019-05-11T08:19:54.706Z,13.08
2019-05-11T08:23:08.902Z,13.39
2019-05-11T08:26:19.273Z,13.24
2019-05-11T08:29:30.090Z,13.18
2019-05-11T08:32:40.639Z,13.11
2019-05-11T08:35:51.235Z,13.27
2019-05-11T08:39:02.277Z,13.47
2019-05-11T08:42:12.706Z,13.47
2019-05-11T08:45:24.886Z,13.39
2019-05-11T08:48:34.824Z,13.43
2019-05-11T08:51:47.760Z,13.67
2019-05-11T08:54:58.170Z,13.90
2019-05-11T08:58:08.480Z,13.37
2019-05-11T09:01:19.349Z,13.34
2019-05-11T09:04:29.134Z,13.40
2019-05-11T09:07:39.806Z,13.49
2019-05-11T09:10:50.386Z,13.19
2019-05-11T09:14:01.462Z,13.47
2019-05-11T09:17:11.970Z,13.79
2019-05-11T09:20:22.934Z,13.82
2019-05-11T09:23:37.660Z,14.21
2019-05-11T09:26:47.775Z,14.40
2019-05-11T09:29:58.669Z,14.41
2019-05-11T09:33:11.117Z,14.08
2019-05-11T09:36:22.172Z,13.81
2019-05-11T09:39:35.178Z,14.13
2019-05-11T09:42:47.894Z,14.63
2019-05-11T09:45:58.592Z,14.61
2019-05-11T09:49:09.559Z,14.92
2019-05-11T09:52:20.032Z,14.86
2019-05-11T09:55:31.485Z,15.25
2019-05-11T09:58:42.390Z,15.70
2019-05-11T10:01:53.229Z,16.24
2019-05-11T10:05:04.824Z,16.00
2019-05-11T10:08:15.186Z,15.44
2019-05-11T10:11:28.090Z,15.12
2019-05-11T10:14:38.475Z,14.64
2019-05-11T10:17:55.563Z,14.63
2019-05-11T10:21:08.211Z,15.09
2019-05-11T10:24:19.913Z,15.34
2019-05-11T10:27:29.840Z,15.22
2019-05-11T10:30:39.765Z,15.13
2019-05-11T10:33:49.548Z,15.29
2019-05-11T10:37:00.215Z,15.32
2019-05-11T10:40:11.767Z,15.53
2019-05-11T10:43:22.809Z,15.24
2019-05-11T10:46:32.747Z,15.34
2019-05-11T10:49:43.318Z,15.53
2019-05-11T10:52:55.404Z,15.59
2019-05-11T10:56:08.561Z,15.39
2019-05-11T10:59:18.917Z,15.40
2019-05-11T11:02:30.077Z,16.20
2019-05-11T11:05:41.227Z,16.62
2019-05-11T11:08:51.068Z,15.92
2019-05-11T11:12:00.706Z,16.09
2019-05-11T11:15:11.107Z,16.34
2019-05-11T11:18:20.827Z,16.71
2019-05-11T11:21:32.392Z,16.15
2019-05-11T11:24:43.746Z,16.83
2019-05-11T11:27:54.303Z,16.04
2019-05-11T11:31:04.899Z,16.19
2019-05-11T11:34:15.020Z,16.04
2019-05-11T11:37:28.117Z,16.45
2019-05-11T11:40:42.926Z,16.74
2019-05-11T11:43:53.942Z,17.38
2019-05-11T11:47:05.042Z,17.77
2019-05-11T11:50:17.638Z,18.08
2019-05-11T11:53:27.900Z,18.55
2019-05-11T11:56:38.841Z,17.95
2019-05-11T11:59:48.845Z,18.81
2019-05-11T12:03:00.046Z,18.02
2019-05-11T12:06:11.060Z,17.70
2019-05-11T12:09:24.739Z,17.50
2019-05-11T12:12:35.606Z,18.59
2019-05-11T12:15:48.004Z,18.67
2019-05-11T12:18:57.802Z,19.01
2019-05-11T12:22:08.747Z,18.46
2019-05-11T12:25:19.718Z,18.92
2019-05-11T12:28:30.277Z,17.74
2019-05-11T12:31:40.842Z,19.20
2019-05-11T12:34:51.855Z,19.76
2019-05-11T12:38:03.016Z,18.94
2019-05-11T12:41:14.178Z,19.14
2019-05-11T12:44:25.002Z,19.64
2019-05-11T12:47:35.872Z,19.08
2019-05-11T12:50:48.477Z,18.02
2019-05-11T12:53:59.199Z,18.56
2019-05-11T12:57:09.970Z,19.48
2019-05-11T13:00:22.288Z,20.36
2019-05-11T13:03:33.138Z,20.30
2019-05-11T13:06:43.187Z,20.59
2019-05-11T13:09:53.421Z,21.36
2019-05-11T13:13:04.276Z,21.34
2019-05-11T13:16:15.231Z,22.18
2019-05-11T13:19:25.228Z,22.23
2019-05-11T13:22:37.964Z,22.23
2019-05-11T13:25:48.244Z,22.96
2019-05-11T13:28:58.578Z,23.28
2019-05-11T13:32:09.600Z,22.07
2019-05-11T13:35:20.533Z,22.37
2019-05-11T13:38:31.674Z,22.65
2019-05-11T13:41:42.386Z,22.81
2019-05-11T13:44:52.550Z,22.88
2019-05-11T13:48:03.456Z,22.66
2019-05-11T13:51:14.502Z,22.91
2019-05-11T13:54:24.653Z,22.92
2019-05-11T13:57:37.934Z,22.84
2019-05-11T14:00:48.221Z,22.49
2019-05-11T14:03:58.849Z,22.79
2019-05-11T14:07:09.712Z,22.29
2019-05-11T14:10:19.864Z,22.41
2019-05-11T14:13:31.358Z,21.77
2019-05-11T14:16:42.138Z,20.81
2019-05-11T14:19:52.034Z,19.88
2019-05-11T14:23:02.831Z,19.16
2019-05-11T14:26:13.650Z,19.30
2019-05-11T14:29:24.367Z,19.11
2019-05-11T14:32:48.225Z,18.47
2019-05-11T14:35:58.578Z,17.90
2019-05-11T14:39:08.855Z,16.56
2019-05-11T14:42:22.089Z,16.79
2019-05-11T14:45:31.129Z,16.19
2019-05-11T14:48:41.220Z,15.99
2019-05-11T14:51:51.306Z,15.87
2019-05-11T14:55:02.281Z,15.47
2019-05-11T14:58:12.470Z,15.37
2019-05-11T15:01:23.448Z,15.43
2019-05-11T15:04:34.328Z,15.81
2019-05-11T15:07:44.520Z,15.64
2019-05-11T15:10:57.555Z,15.61
2019-05-11T15:14:08.147Z,15.67
2019-05-11T15:17:18.990Z,15.78
2019-05-11T15:20:29.015Z,15.86
2019-05-11T15:23:38.885Z,15.82
2019-05-11T15:26:49.102Z,16.05
2019-05-11T15:30:00.172Z,15.73
2019-05-11T15:33:11.113Z,15.81
2019-05-11T15:36:21.180Z,15.27
2019-05-11T15:39:31.547Z,15.22
2019-05-11T15:42:42.953Z,14.84
2019-05-11T15:45:53.700Z,14.50
2019-05-11T15:49:03.667Z,14.20
2019-05-11T15:52:18.863Z,14.17
2019-05-11T15:55:30.407Z,14.16
2019-05-11T15:58:41.396Z,13.99
2019-05-11T16:01:54.569Z,14.37
2019-05-11T16:05:08.465Z,14.44
2019-05-11T16:08:18.995Z,14.40
2019-05-11T16:11:29.781Z,14.40
2019-05-11T16:14:39.543Z,14.43
2019-05-11T16:17:50.377Z,14.56
2019-05-11T16:21:00.878Z,14.28
2019-05-11T16:24:11.794Z,14.18
2019-05-11T16:27:21.590Z,13.81
2019-05-11T16:30:32.370Z,13.34
2019-05-11T16:33:42.694Z,13.01
2019-05-11T16:36:52.947Z,13.07
2019-05-11T16:40:09.910Z,12.94
2019-05-11T16:43:20.195Z,13.22
2019-05-11T16:46:30.744Z,13.83
2019-05-11T16:49:41.416Z,14.01
2019-05-11T16:52:51.663Z,14.01
2019-05-11T16:56:01.620Z,13.88
2019-05-11T16:59:12.513Z,13.84
2019-05-11T17:02:22.807Z,13.77
2019-05-11T17:05:33.789Z,13.59
2019-05-11T17:08:45.167Z,13.65
2019-05-11T17:11:57.898Z,13.66
2019-05-11T17:15:10.011Z,13.80
2019-05-11T17:18:20.387Z,13.80
2019-05-11T17:21:30.787Z,13.86
2019-05-11T17:24:41.358Z,13.73
2019-05-11T17:27:51.314Z,13.47
2019-05-11T17:31:03.048Z,13.44
2019-05-11T17:34:13.095Z,13.12
2019-05-11T17:37:23.761Z,12.79
2019-05-11T17:40:34.155Z,12.93
2019-05-11T17:43:44.476Z,13.77
2019-05-11T17:46:55.083Z,13.29
2019-05-11T17:50:08.110Z,12.74
2019-05-11T17:53:18.850Z,12.43
2019-05-11T17:56:29.273Z,12.15
2019-05-11T17:59:40.225Z,12.15
2019-05-11T18:02:50.680Z,12.10
2019-05-11T18:06:03.506Z,11.95
2019-05-11T18:09:13.521Z,11.94
2019-05-11T18:12:23.876Z,12.33
2019-05-11T18:15:34.592Z,12.52
2019-05-11T18:18:48.211Z,11.71
2019-05-11T18:21:57.792Z,11.42
2019-05-11T18:25:09.793Z,11.37
2019-05-11T18:28:20.328Z,11.26
2019-05-11T18:31:30.559Z,11.35
2019-05-11T18:34:40.979Z,11.15
2019-05-11T18:37:50.913Z,11.19
2019-05-11T18:41:01.635Z,11.05
2019-05-11T18:44:11.336Z,11.03
2019-05-11T18:47:22.062Z,10.95
2019-05-11T18:50:34.091Z,10.70
2019-05-11T18:53:43.935Z,10.92
2019-05-11T18:56:54.173Z,10.89
2019-05-11T19:00:07.964Z,10.77
2019-05-11T19:03:19.354Z,10.69
2019-05-11T19:06:28.663Z,10.59
2019-05-11T19:09:39.623Z,10.46
2019-05-11T19:12:49.256Z,10.48
2019-05-11T19:15:59.891Z,10.43
2019-05-11T19:19:10.867Z,10.21
2019-05-11T19:22:21.588Z,10.26
2019-05-11T19:25:32.228Z,10.33
2019-05-11T19:28:42.243Z,10.15
2019-05-11T19:31:53.243Z,10.08
2019-05-11T19:35:03.844Z,10.03
2019-05-11T19:38:14.327Z,10.10
2019-05-11T19:41:24.844Z,9.98
2019-05-11T19:44:35.624Z,10.06
2019-05-11T19:47:48.324Z,10.08
2019-05-11T19:51:04.664Z,10.00
2019-05-11T19:54:09.446Z,9.85
2019-05-11T19:57:19.437Z,9.85
2019-05-11T20:00:30.228Z,9.80
2019-05-11T20:03:40.192Z,9.76
2019-05-11T20:06:51.125Z,9.63
2019-05-11T20:10:02.241Z,9.69
2019-05-11T20:13:13.068Z,9.58
2019-05-11T20:16:23.309Z,9.49
2019-05-11T20:19:34.562Z,9.40
2019-05-11T20:22:45.081Z,9.48
2019-05-11T20:25:58.194Z,9.53
2019-05-11T20:29:08.645Z,9.33
2019-05-11T20:32:19.428Z,9.27
2019-05-11T20:35:32.687Z,9.34
2019-05-11T20:38:43.383Z,9.35
2019-05-11T20:41:54.223Z,9.34
2019-05-11T20:45:07.819Z,9.33
2019-05-11T20:48:18.437Z,9.28
2019-05-11T20:51:36.706Z,9.23
2019-05-11T20:54:40.583Z,9.05
2019-05-11T20:57:50.808Z,8.74
2019-05-11T21:01:03.382Z,8.77
2019-05-11T21:04:13.538Z,8.68
2019-05-11T21:07:23.385Z,8.75
2019-05-11T21:10:34.083Z,8.78
2019-05-11T21:13:44.350Z,8.86
2019-05-11T21:16:55.093Z,8.82
2019-05-11T21:20:09.437Z,8.83
2019-05-11T21:23:21.451Z,8.78
2019-05-11T21:26:32.364Z,8.83
2019-05-11T21:29:43.862Z,8.63
2019-05-11T21:32:53.695Z,8.62
2019-05-11T21:36:04.317Z,8.62
2019-05-11T21:39:15.430Z,8.66
2019-05-11T21:42:27.948Z,8.67
2019-05-11T21:45:40.339Z,8.71
2019-05-11T21:48:49.080Z,8.80
2019-05-11T21:52:04.446Z,8.68
2019-05-11T21:55:11.511Z,8.78
2019-05-11T21:58:21.437Z,8.79
2019-05-11T22:01:32.267Z,8.71
2019-05-11T22:04:41.513Z,8.71
2019-05-11T22:07:52.568Z,8.51
2019-05-11T22:11:02.494Z,8.47
2019-05-11T22:14:12.451Z,8.48
2019-05-11T22:17:22.399Z,8.40
2019-05-11T22:20:33.334Z,8.43
2019-05-11T22:23:43.270Z,8.37
2019-05-11T22:26:53.803Z,8.25
2019-05-11T22:30:04.724Z,8.12
2019-05-11T22:33:14.636Z,8.21
2019-05-11T22:36:25.140Z,8.13
2019-05-11T22:39:35.004Z,8.12
2019-05-11T22:42:44.984Z,8.11
2019-05-11T22:45:57.938Z,7.94
2019-05-11T22:49:08.466Z,7.81
2019-05-11T22:52:32.972Z,7.79
2019-05-11T22:55:32.340Z,7.68
2019-05-11T22:58:42.568Z,7.63
2019-05-11T23:01:53.422Z,7.72
2019-05-11T23:05:04.231Z,7.71
2019-05-11T23:08:14.623Z,7.64
2019-05-11T23:11:25.292Z,7.52
2019-05-11T23:14:37.564Z,7.44
2019-05-11T23:17:48.138Z,7.23
2019-05-11T23:20:58.842Z,7.24
2019-05-11T23:24:09.230Z,7.27
2019-05-11T23:27:19.508Z,7.30
2019-05-11T23:30:30.025Z,7.32
2019-05-11T23:33:40.181Z,7.31
2019-05-11T23:36:50.351Z,7.38
2019-05-11T23:39:59.938Z,7.28
2019-05-11T23:43:10.312Z,7.26
2019-05-11T23:46:20.203Z,7.07
2019-05-11T23:49:30.994Z,7.21
2019-05-11T23:52:41.549Z,7.22
2019-05-11T23:55:51.458Z,7.06
2019-05-11T23:59:03.258Z,7.01
